This is the latest recevied weather packets stored in our database for station/object KO4YAW. If no packets are shown the sender has not sent any weather packets the latest 10 day(s).
| Time | Temp. | Humidity | Pressure | Rain* | Wind** | Luminosity | Snow |
|---|---|---|---|---|---|---|---|
| 1777868132 | 18.33° C | 24% | 1012.4 hPa | 0 mm | - | 0 W/m² | - |
| 1777867232 | 18.33° C | 22% | 1012.2 hPa | 0 mm | - | 0 W/m² | - |
| 1777866332 | 17.78° C | 22% | 1012.5 hPa | 0 mm | - | 0 W/m² | - |
| 1777865432 | 16.11° C | 30% | 1012.8 hPa | 0 mm | - | 0 W/m² | - |
| 1777864532 | 16.67° C | 29% | 1013 hPa | 0 mm | - | 0 W/m² | - |
| 1777863632 | 16.67° C | 28% | 1012.7 hPa | 0 mm | - | 0 W/m² | - |
| 1777862732 | 16.67° C | 28% | 1012.7 hPa | 0 mm | - | 0 W/m² | - |
| 1777861832 | 16.67° C | 29% | 1012.7 hPa | 0 mm | - | 0 W/m² | - |
| 1777860932 | 16.67° C | 29% | 1012.7 hPa | 0 mm | - | 0 W/m² | - |
| 1777860032 | 17.22° C | 28% | 1012.7 hPa | 0 mm | - | 1 W/m² | - |
| 1777859132 | 17.78° C | 27% | 1012.7 hPa | 0 mm | - | 4 W/m² | - |
| 1777858232 | 18.33° C | 25% | 1012.6 hPa | 0 mm | - | 11 W/m² | - |
| 1777857332 | 18.89° C | 24% | 1012.6 hPa | 0 mm | - | 21 W/m² | - |
| 1777856432 | 18.89° C | 24% | 1012.8 hPa | 0 mm | - | 40 W/m² | - |
| 1777855532 | 18.89° C | 24% | 1013.1 hPa | 0 mm | - | 51 W/m² | - |
| 1777854632 | 19.44° C | 23% | 1013 hPa | 0 mm | - | 45 W/m² | - |
| 1777853732 | 19.44° C | 22% | 1012.4 hPa | 0 mm | - | 37 W/m² | - |
| 1777852832 | 19.44° C | 23% | 1012.4 hPa | 0 mm | - | 116 W/m² | - |
| 1777851932 | 20° C | 23% | 1012.4 hPa | 0 mm | - | 197 W/m² | - |
| 1777851032 | 20.56° C | 20% | 1012.5 hPa | 0 mm | - | 247 W/m² | - |
| 1777850132 | 21.11° C | 20% | 1012.4 hPa | 0 mm | - | 179 W/m² | - |
| 1777849232 | 21.11° C | 18% | 1012.2 hPa | 0 mm | - | 243 W/m² | - |
| 1777848332 | 21.67° C | 18% | 1012.2 hPa | 0 mm | - | 255 W/m² | - |
| 1777847432 | 21.67° C | 18% | 1012.4 hPa | 0 mm | - | 324 W/m² | - |
| 1777846532 | 21.67° C | 18% | 1012.5 hPa | 0 mm | - | 436 W/m² | - |
* Rain since midnight (hover to see other rain measurements)
** Current wind speed in m/s (hover to see current wind gust speed)